Time;durP1;ratioP1;P1;durP2;ratioP2;P2;SDS_P1;SDS_P2;PMS_P1;PMS_P2;Temp;Humidity;BMP_temperature;BMP_pressure;BME280_temperature;BME280_humidity;BME280_pressure;Samples;Min_cycle;Max_cycle;Signal;HPM_P1;HPM_P2
2022/03/06 00:01:17;;;;;;;12.80;8.43;;;;;;;0.66;58.83;151539.13;5039153;28;20662;-77
2022/03/06 00:03:54;;;;;;;15.03;9.03;;;;;;;0.63;58.66;151530.13;5041266;28;20479;-77
2022/03/06 00:06:30;;;;;;;12.87;8.60;;;;;;;0.64;58.53;151533.94;5029943;28;20454;-77
2022/03/06 00:09:05;;;;;;;11.53;8.57;;;;;;;0.60;58.30;151525.00;5045551;28;20532;-78
2022/03/06 00:11:41;;;;;;;12.20;8.10;;;;;;;0.58;58.56;151519.81;5030333;28;20440;-77
2022/03/06 00:14:16;;;;;;;11.20;8.23;;;;;;;0.61;58.56;151526.25;5044894;28;20522;-78
2022/03/06 00:16:53;;;;;;;13.37;7.50;;;;;;;0.60;59.08;151523.72;5047036;28;20504;-78
2022/03/06 00:19:30;;;;;;;12.83;8.80;;;;;;;0.59;58.85;151521.13;5044242;28;20504;-77
2022/03/06 00:22:06;;;;;;;18.57;9.30;;;;;;;0.56;59.18;151514.69;5043225;28;20454;-77
2022/03/06 00:24:41;;;;;;;11.23;7.53;;;;;;;0.51;59.45;151500.56;5049246;28;20928;-78
2022/03/06 00:27:17;;;;;;;10.30;7.00;;;;;;;0.46;59.79;151487.75;5047195;28;20863;-77
2022/03/06 00:29:52;;;;;;;13.53;8.73;;;;;;;0.50;59.63;151498.03;5031381;28;20467;-77
2022/03/06 00:32:28;;;;;;;12.40;8.30;;;;;;;0.49;59.89;151496.75;5043772;28;20465;-77
2022/03/06 00:35:06;;;;;;;16.87;9.07;;;;;;;0.50;59.74;151499.28;5047024;28;20816;-78
2022/03/06 00:37:42;;;;;;;11.17;7.80;;;;;;;0.48;59.74;151492.88;5028928;28;20951;-77
2022/03/06 00:40:17;;;;;;;12.27;7.97;;;;;;;0.45;60.65;151486.44;5046359;28;20526;-78
2022/03/06 00:42:53;;;;;;;14.43;7.90;;;;;;;0.42;60.21;151477.50;5032540;28;20497;-77
2022/03/06 00:45:29;;;;;;;13.57;8.97;;;;;;;0.39;60.73;151471.09;5046153;28;20446;-77
2022/03/06 00:48:05;;;;;;;13.17;9.40;;;;;;;0.37;60.72;151464.66;5046008;28;20453;-77
2022/03/06 00:50:42;;;;;;;12.97;7.77;;;;;;;0.33;61.09;151454.38;5063976;28;20472;-77
2022/03/06 00:53:18;;;;;;;11.20;8.10;;;;;;;0.32;60.16;151453.06;5065884;28;20809;-77
2022/03/06 00:55:53;;;;;;;15.63;8.83;;;;;;;0.29;60.51;151445.38;5067024;28;20451;-78
2022/03/06 00:58:29;;;;;;;13.60;8.73;;;;;;;0.23;60.69;151428.72;5064479;28;20932;-77
2022/03/06 01:01:05;;;;;;;14.50;8.90;;;;;;;0.18;61.36;151417.19;5051776;28;20565;-77
2022/03/06 01:03:42;;;;;;;13.90;8.10;;;;;;;0.21;60.98;151423.59;5048191;28;20472;-77
2022/03/06 01:06:19;;;;;;;12.40;8.37;;;;;;;0.25;61.19;151433.84;5065771;28;20915;-77
2022/03/06 01:08:54;;;;;;;14.10;8.70;;;;;;;0.26;61.29;151436.41;5059793;28;20448;-77
2022/03/06 01:11:30;;;;;;;11.40;7.63;;;;;;;0.19;61.30;151418.41;5064460;28;20445;-77
2022/03/06 01:14:06;;;;;;;10.53;8.03;;;;;;;0.12;61.78;151401.75;5045748;28;20543;-77
2022/03/06 01:16:41;;;;;;;13.73;9.20;;;;;;;0.17;61.68;151413.28;5064840;28;20444;-77
2022/03/06 01:19:17;;;;;;;14.10;8.93;;;;;;;0.15;61.74;151408.19;5063490;28;20451;-77
2022/03/06 01:21:54;;;;;;;17.50;9.93;;;;;;;0.12;61.73;151401.75;5048826;28;20455;-77
2022/03/06 01:24:30;;;;;;;15.33;9.03;;;;;;;0.09;61.93;151394.06;5064789;28;20463;-77
2022/03/06 01:27:05;;;;;;;13.23;8.20;;;;;;;0.06;62.13;151386.34;5063373;28;20467;-77
2022/03/06 01:29:41;;;;;;;13.27;8.10;;;;;;;0.10;61.77;151395.34;5063026;28;20491;-78
2022/03/06 01:32:16;;;;;;;11.63;7.93;;;;;;;0.11;62.15;151397.94;5044383;28;20451;-78
2022/03/06 01:34:52;;;;;;;12.90;8.30;;;;;;;0.05;62.92;151382.50;5044369;28;20470;-77
2022/03/06 01:37:29;;;;;;;9.93;7.00;;;;;;;-0.06;63.16;151356.88;5062941;28;20791;-77
2022/03/06 01:40:07;;;;;;;15.70;8.03;;;;;;;-0.12;62.84;151341.44;5060373;28;20453;-77
2022/03/06 01:42:44;;;;;;;13.20;8.30;;;;;;;-0.18;63.74;151324.75;5067162;28;20969;-77
2022/03/06 01:45:21;;;;;;;13.93;9.10;;;;;;;-0.19;64.32;151323.50;5052317;28;20463;-77
2022/03/06 01:47:58;;;;;;;14.03;8.27;;;;;;;-0.19;63.68;151323.50;5053687;28;20483;-77
2022/03/06 01:50:34;;;;;;;13.70;8.40;;;;;;;-0.13;63.95;151337.56;5063336;28;20486;-77
2022/03/06 01:53:12;;;;;;;13.40;8.53;;;;;;;-0.13;63.75;151338.88;5053891;28;20559;-77
2022/03/06 01:55:47;;;;;;;10.60;8.23;;;;;;;-0.14;63.86;151336.34;5064833;28;20438;-77
2022/03/06 01:58:23;;;;;;;13.83;8.17;;;;;;;-0.13;63.90;151338.88;5065253;28;20457;-77
2022/03/06 02:01:00;;;;;;;12.57;7.90;;;;;;;-0.14;64.50;151336.34;5063624;28;20448;-77
2022/03/06 02:03:35;;;;;;;14.33;8.67;;;;;;;-0.18;64.09;151326.03;5062523;28;20915;-77
2022/03/06 02:06:11;;;;;;;14.30;9.00;;;;;;;-0.15;64.25;151332.47;5050960;28;20441;-77
2022/03/06 02:08:48;;;;;;;13.00;8.53;;;;;;;-0.20;64.54;151320.91;5063769;28;20456;-77
2022/03/06 02:11:25;;;;;;;12.50;7.80;;;;;;;-0.27;65.09;151302.97;5048925;28;20452;-77
2022/03/06 02:14:03;;;;;;;11.23;8.40;;;;;;;-0.27;65.29;151302.97;5061237;28;20508;-77
2022/03/06 02:16:38;;;;;;;14.20;8.93;;;;;;;-0.35;64.57;151282.44;5064165;28;20450;-78
2022/03/06 02:19:15;;;;;;;14.43;8.40;;;;;;;-0.32;64.87;151290.09;5064622;28;20950;-77
2022/03/06 02:21:52;;;;;;;12.67;8.07;;;;;;;-0.39;65.81;151272.16;5063824;28;20449;-77
2022/03/06 02:24:27;;;;;;;11.00;8.10;;;;;;;-0.46;65.77;151254.22;5066062;28;20962;-77
2022/03/06 02:27:03;;;;;;;12.00;7.63;;;;;;;-0.43;66.18;151261.94;5066707;28;20532;-77
2022/03/06 02:29:40;;;;;;;14.57;8.60;;;;;;;-0.38;66.55;151274.75;5047721;28;20443;-77
2022/03/06 02:32:19;;;;;;;11.50;8.20;;;;;;;-0.39;66.72;151272.16;5065246;28;20462;-77
2022/03/06 02:34:54;;;;;;;12.37;8.03;;;;;;;-0.39;66.27;151272.16;5081416;28;20440;-77
2022/03/06 02:37:31;;;;;;;14.23;9.00;;;;;;;-0.37;66.61;151277.28;5050572;28;20465;-77
2022/03/06 02:40:09;;;;;;;11.40;7.93;;;;;;;-0.44;66.67;151258.03;5064425;28;20458;-77
2022/03/06 02:42:46;;;;;;;12.63;8.23;;;;;;;-0.47;66.49;151250.34;5058979;28;20455;-77
2022/03/06 02:45:24;;;;;;;16.60;8.50;;;;;;;-0.53;67.62;151236.22;5041999;28;20843;-77
2022/03/06 02:47:59;;;;;;;11.30;8.50;;;;;;;-0.50;68.12;151243.94;5044494;28;20445;-77
2022/03/06 02:50:37;;;;;;;13.80;9.30;;;;;;;-0.52;67.97;151238.81;5045067;28;20471;-77
2022/03/06 02:53:23;;;;;;;12.00;8.80;;;;;;;-0.50;68.04;151243.94;5045519;28;20542;-77
2022/03/06 02:55:59;;;;;;;11.57;8.47;;;;;;;-0.49;68.10;151246.53;5062393;28;20460;-77
2022/03/06 02:58:34;;;;;;;12.83;8.60;;;;;;;-0.46;67.61;151254.22;5062696;28;20451;-77
2022/03/06 03:01:10;;;;;;;11.80;8.63;;;;;;;-0.44;67.67;151259.34;5067230;28;20496;-77
2022/03/06 03:03:45;;;;;;;12.90;7.87;;;;;;;-0.45;67.80;151256.75;5051553;28;20543;-77
2022/03/06 03:06:21;;;;;;;13.50;8.60;;;;;;;-0.49;68.08;151245.22;5066908;28;20546;-77
2022/03/06 03:08:59;;;;;;;11.93;8.33;;;;;;;-0.52;67.67;151238.81;5067345;28;20840;-77
2022/03/06 03:11:35;;;;;;;13.90;8.70;;;;;;;-0.57;68.33;151224.69;5066309;28;20459;-77
2022/03/06 03:14:10;;;;;;;14.63;9.23;;;;;;;-0.63;68.68;151210.59;5066012;28;20433;-77
2022/03/06 03:16:46;;;;;;;13.67;8.73;;;;;;;-0.67;68.75;151200.34;5065160;28;21038;-77
2022/03/06 03:19:22;;;;;;;13.53;8.90;;;;;;;-0.67;68.91;151200.34;5054148;28;20450;-77
2022/03/06 03:21:58;;;;;;;15.37;9.27;;;;;;;-0.73;69.07;151186.25;5069279;28;20460;-77
2022/03/06 03:24:35;;;;;;;15.90;9.37;;;;;;;-0.68;69.31;151197.78;5069065;28;20887;-77
2022/03/06 03:27:10;;;;;;;14.87;10.23;;;;;;;-0.69;69.95;151195.25;5067200;28;20447;-77
2022/03/06 03:29:46;;;;;;;14.40;8.83;;;;;;;-0.64;69.47;151208.06;5067123;28;20451;-77
2022/03/06 03:32:22;;;;;;;13.00;8.63;;;;;;;-0.64;69.92;151209.28;5053618;28;20458;-77
2022/03/06 03:34:57;;;;;;;13.10;8.53;;;;;;;-0.65;69.99;151205.47;5067951;28;20457;-77
2022/03/06 03:37:33;;;;;;;13.77;8.70;;;;;;;-0.63;70.13;151210.59;5050344;28;20472;-77
2022/03/06 03:40:12;;;;;;;15.90;9.10;;;;;;;-0.60;70.08;151218.28;5065157;28;20793;-77
2022/03/06 03:42:47;;;;;;;11.57;8.30;;;;;;;-0.61;70.23;151215.75;5082695;28;20820;-77
2022/03/06 03:45:23;;;;;;;13.70;10.27;;;;;;;-0.65;70.24;151206.75;5070046;28;20469;-77
2022/03/06 03:47:59;;;;;;;17.27;8.97;;;;;;;-0.69;70.17;151195.25;5068104;28;20929;-77
2022/03/06 03:50:34;;;;;;;11.27;8.97;;;;;;;-0.69;70.73;151195.25;5066434;28;20490;-77
2022/03/06 03:53:10;;;;;;;13.07;8.60;;;;;;;-0.69;70.43;151195.25;5066253;28;20481;-77
2022/03/06 03:55:47;;;;;;;15.50;9.20;;;;;;;-0.71;71.09;151190.06;5047947;28;20491;-77
2022/03/06 03:58:23;;;;;;;14.13;8.97;;;;;;;-0.73;70.68;151184.94;5067606;28;20487;-77
2022/03/06 04:00:58;;;;;;;16.30;9.07;;;;;;;-0.69;71.10;151195.25;5069973;28;20786;-77
2022/03/06 04:03:34;;;;;;;14.27;9.57;;;;;;;-0.72;70.67;151187.53;5051482;28;20461;-77
2022/03/06 04:06:10;;;;;;;15.97;8.70;;;;;;;-0.71;71.27;151190.06;5071314;28;20551;-77
2022/03/06 04:08:46;;;;;;;15.30;9.43;;;;;;;-0.74;71.05;151182.38;5065540;28;20451;-77
2022/03/06 04:11:23;;;;;;;13.73;9.20;;;;;;;-0.71;70.65;151190.06;5060893;28;20517;-77
2022/03/06 04:13:58;;;;;;;15.07;9.23;;;;;;;-0.76;71.09;151177.25;5066184;28;20943;-77
2022/03/06 04:16:34;;;;;;;14.77;9.50;;;;;;;-0.75;71.28;151179.84;5066933;28;20433;-77
2022/03/06 04:19:10;;;;;;;11.93;8.20;;;;;;;-0.73;71.29;151184.94;5067612;28;20538;-77
2022/03/06 04:21:46;;;;;;;15.33;8.70;;;;;;;-0.78;72.15;151172.13;5041154;28;20438;-77
2022/03/06 04:24:21;;;;;;;16.03;9.83;;;;;;;-0.74;71.40;151182.38;5050360;28;21028;-77
2022/03/06 04:26:59;;;;;;;13.97;8.97;;;;;;;-0.82;72.06;151161.91;5066804;28;20548;-77
2022/03/06 04:29:34;;;;;;;15.70;10.10;;;;;;;-0.80;71.69;151167.00;5051887;28;20438;-77
2022/03/06 04:32:10;;;;;;;17.03;9.43;;;;;;;-0.86;72.22;151151.63;5065556;28;20837;-77
2022/03/06 04:34:46;;;;;;;17.33;10.53;;;;;;;-0.94;72.90;151131.09;5069611;28;20529;-77
2022/03/06 04:37:21;;;;;;;12.90;9.00;;;;;;;-0.95;73.21;151129.81;5063814;28;20453;-77
2022/03/06 04:39:57;;;;;;;13.87;9.10;;;;;;;-1.00;73.37;151117.00;5067587;28;20444;-77
2022/03/06 04:42:34;;;;;;;14.63;9.97;;;;;;;-0.94;72.92;151131.09;5065123;28;20451;-77
2022/03/06 04:45:10;;;;;;;13.17;10.37;;;;;;;-0.94;73.37;151131.09;5068957;28;20464;-77
2022/03/06 04:47:46;;;;;;;18.90;10.50;;;;;;;-0.98;73.50;151120.88;5068563;28;20967;-77
2022/03/06 04:50:22;;;;;;;13.73;9.13;;;;;;;-1.02;74.30;151111.88;5082806;28;21043;-77
2022/03/06 04:52:57;;;;;;;16.90;10.27;;;;;;;-1.03;74.54;151108.06;5070713;28;20946;-77
2022/03/06 04:55:33;;;;;;;13.33;8.67;;;;;;;-1.04;74.30;151105.47;5065847;28;20437;-77
2022/03/06 04:58:10;;;;;;;14.60;9.47;;;;;;;-1.06;73.91;151100.34;5068413;28;20510;-77
2022/03/06 05:00:45;;;;;;;15.43;9.63;;;;;;;-1.13;74.38;151082.38;5067690;28;20839;-77
2022/03/06 05:03:21;;;;;;;13.60;9.73;;;;;;;-1.15;75.06;151077.25;5066489;28;20444;-77
2022/03/06 05:05:57;;;;;;;11.90;8.80;;;;;;;-1.14;75.16;151079.84;5068200;28;20466;-77
2022/03/06 05:08:33;;;;;;;17.87;9.53;;;;;;;-1.13;74.99;151082.38;5067239;28;20931;-77
2022/03/06 05:11:08;;;;;;;15.20;9.60;;;;;;;-1.14;74.91;151079.84;5050913;28;20446;-77
2022/03/06 05:13:45;;;;;;;13.40;9.60;;;;;;;-1.14;75.15;151081.13;5068390;28;20982;-77
2022/03/06 05:16:21;;;;;;;13.13;9.30;;;;;;;-1.18;75.26;151070.84;5070214;28;20442;-76
2022/03/06 05:18:57;;;;;;;11.37;8.20;;;;;;;-1.23;75.32;151059.34;5069970;28;20444;-76
2022/03/06 05:21:32;;;;;;;16.97;9.80;;;;;;;-1.23;75.25;151058.03;5051108;28;20877;-76
2022/03/06 05:24:08;;;;;;;16.87;9.37;;;;;;;-1.23;75.70;151059.34;5069310;28;20451;-77
2022/03/06 05:26:43;;;;;;;14.77;9.37;;;;;;;-1.20;75.49;151064.44;5068855;28;20440;-76
2022/03/06 05:29:20;;;;;;;18.87;8.93;;;;;;;-1.17;75.92;151072.13;5066680;28;20447;-76
2022/03/06 05:31:56;;;;;;;15.40;9.90;;;;;;;-1.14;76.09;151079.84;5064302;28;20474;-77
2022/03/06 05:34:32;;;;;;;12.17;9.00;;;;;;;-1.14;76.51;151081.13;5068223;28;20468;-77
2022/03/06 05:37:07;;;;;;;14.40;8.53;;;;;;;-1.13;76.35;151082.38;5087377;28;20548;-77
2022/03/06 05:39:43;;;;;;;21.20;10.43;;;;;;;-1.07;76.40;151097.78;5051527;28;21022;-77
2022/03/06 05:42:19;;;;;;;17.30;10.20;;;;;;;-1.05;76.53;151104.19;5069691;28;20814;-77
2022/03/06 05:44:56;;;;;;;14.27;9.03;;;;;;;-1.10;76.49;151090.06;5068533;28;20454;-77
2022/03/06 05:47:32;;;;;;;16.97;9.83;;;;;;;-1.08;76.98;151096.47;5066497;28;20927;-77
2022/03/06 05:50:08;;;;;;;14.77;10.20;;;;;;;-1.09;76.94;151092.66;5052585;28;20568;-77
2022/03/06 05:52:44;;;;;;;13.67;9.53;;;;;;;-1.11;76.60;151087.53;5050450;28;20457;-77
2022/03/06 05:55:19;;;;;;;18.13;10.13;;;;;;;-1.10;76.82;151090.06;5052030;28;20460;-76
2022/03/06 05:57:55;;;;;;;15.33;9.60;;;;;;;-1.11;76.99;151087.53;5052097;28;20446;-77
2022/03/06 06:00:32;;;;;;;15.43;10.10;;;;;;;-1.09;77.40;151092.66;5070888;28;20845;-77
2022/03/06 06:03:08;;;;;;;14.33;10.00;;;;;;;-1.13;77.49;151082.38;5084468;28;20769;-77
2022/03/06 06:05:43;;;;;;;15.93;9.70;;;;;;;-1.19;77.20;151068.28;5060696;28;20487;-77
2022/03/06 06:08:19;;;;;;;14.87;8.70;;;;;;;-1.17;77.17;151072.13;5068754;28;20452;-77
2022/03/06 06:10:55;;;;;;;14.70;9.20;;;;;;;-1.22;77.27;151060.63;5065387;28;20446;-77
2022/03/06 06:13:30;;;;;;;14.97;9.90;;;;;;;-1.18;77.82;151069.56;5052452;28;20941;-77
2022/03/06 06:16:07;;;;;;;17.43;10.90;;;;;;;-1.18;78.05;151069.56;5063926;28;20453;-77
2022/03/06 06:18:43;;;;;;;16.90;11.07;;;;;;;-1.15;77.91;151078.56;5064237;28;20819;-77
2022/03/06 06:21:19;;;;;;;15.07;9.33;;;;;;;-1.15;78.15;151077.25;5065955;28;20545;-77
2022/03/06 06:23:54;;;;;;;19.70;11.07;;;;;;;-1.05;78.23;151102.88;5067805;28;20550;-77
2022/03/06 06:26:30;;;;;;;16.97;10.20;;;;;;;-1.03;77.92;151108.06;5047997;28;20563;-76
2022/03/06 06:29:06;;;;;;;14.63;10.00;;;;;;;-1.02;78.31;151110.59;5051033;28;20843;-77
2022/03/06 06:31:43;;;;;;;17.03;9.83;;;;;;;-0.96;77.67;151127.28;5068631;28;20425;-76
2022/03/06 06:34:19;;;;;;;18.07;9.87;;;;;;;-0.90;77.70;151141.38;5061053;28;20440;-77
2022/03/06 06:36:57;;;;;;;12.17;9.43;;;;;;;-0.80;77.12;151167.00;5077000;28;20468;-77
2022/03/06 06:39:33;;;;;;;13.70;9.70;;;;;;;-0.75;77.24;151179.84;5062093;28;20438;-77
2022/03/06 06:42:09;;;;;;;18.60;10.50;;;;;;;-0.64;77.04;151208.06;5061849;28;20551;-77
2022/03/06 06:44:45;;;;;;;14.53;9.80;;;;;;;-0.47;76.69;151251.63;5063948;28;20448;-77
2022/03/06 06:47:21;;;;;;;15.80;10.27;;;;;;;-0.42;75.82;151264.47;5047633;28;20455;-76
2022/03/06 06:49:57;;;;;;;16.30;11.07;;;;;;;-0.40;75.63;151268.34;5066399;28;20467;-77
2022/03/06 06:52:33;;;;;;;15.60;9.60;;;;;;;-0.25;75.66;151308.09;5066661;28;20453;-77
2022/03/06 06:55:09;;;;;;;14.23;9.50;;;;;;;-0.09;74.41;151347.88;5049352;28;20461;-76
2022/03/06 06:57:45;;;;;;;16.27;11.33;;;;;;;-0.08;74.28;151351.69;5072966;28;20453;-76
2022/03/06 07:00:21;;;;;;;12.87;9.50;;;;;;;0.02;74.65;151374.81;5051027;28;20456;-77
2022/03/06 07:02:58;;;;;;;17.60;10.43;;;;;;;0.17;73.99;151413.28;5065435;28;20442;-76
2022/03/06 07:05:33;;;;;;;17.23;10.07;;;;;;;0.30;73.84;151446.66;5067472;28;20471;-78
2022/03/06 07:08:09;;;;;;;15.23;11.27;;;;;;;0.44;73.38;151482.63;5074905;28;20449;-78
2022/03/06 07:10:45;;;;;;;12.60;9.20;;;;;;;0.43;72.09;151480.03;5051267;28;20455;-78
2022/03/06 07:13:20;;;;;;;13.67;9.10;;;;;;;0.53;71.95;151505.75;5062396;28;20448;-78
2022/03/06 07:16:08;;;;;;;16.40;10.17;;;;;;;0.60;71.83;151525.00;5080559;28;20548;-77
2022/03/06 07:18:45;;;;;;;12.73;8.73;;;;;;;0.68;71.85;151542.97;5051431;28;20442;-77
2022/03/06 07:21:20;;;;;;;17.57;10.87;;;;;;;0.76;71.31;151564.81;5067184;28;20961;-77
2022/03/06 07:23:56;;;;;;;16.17;9.90;;;;;;;0.89;70.93;151598.19;5083955;28;20443;-77
2022/03/06 07:26:31;;;;;;;16.30;10.70;;;;;;;1.07;69.86;151644.41;5065049;28;20835;-77
2022/03/06 07:29:08;;;;;;;17.33;10.70;;;;;;;1.08;70.01;151647.00;5067724;28;20547;-77
2022/03/06 07:31:43;;;;;;;15.17;9.93;;;;;;;1.24;69.45;151686.81;5066915;28;20453;-77
2022/03/06 07:34:20;;;;;;;14.03;9.83;;;;;;;1.43;68.67;151734.34;5052060;28;20885;-77
2022/03/06 07:36:56;;;;;;;14.07;9.40;;;;;;;1.54;68.42;151762.56;5046382;28;20515;-77
2022/03/06 07:39:31;;;;;;;15.40;10.60;;;;;;;1.71;67.36;151807.59;5084889;28;20440;-77
2022/03/06 07:42:07;;;;;;;15.67;10.73;;;;;;;1.85;67.71;151842.28;5067694;28;20446;-77
2022/03/06 07:44:43;;;;;;;16.90;11.37;;;;;;;1.98;67.00;151875.72;5067810;28;20845;-77
2022/03/06 07:47:19;;;;;;;17.97;12.20;;;;;;;2.19;65.87;151928.41;5053921;28;20955;-77
2022/03/06 07:49:56;;;;;;;16.43;10.50;;;;;;;2.31;66.04;151959.25;5067859;28;20521;-77
2022/03/06 07:52:32;;;;;;;19.23;12.63;;;;;;;2.32;65.08;151963.13;5062678;28;20453;-77
2022/03/06 07:55:09;;;;;;;17.00;11.00;;;;;;;2.37;65.40;151976.00;5045669;28;20439;-77
2022/03/06 07:57:44;;;;;;;18.60;10.87;;;;;;;2.33;64.62;151965.66;5081681;28;20455;-77
2022/03/06 08:00:19;;;;;;;16.27;11.03;;;;;;;2.16;65.09;151920.69;5065182;28;20844;-77
2022/03/06 08:02:56;;;;;;;19.83;12.97;;;;;;;2.22;64.83;151936.13;5050297;28;20454;-78
2022/03/06 08:05:33;;;;;;;16.77;11.77;;;;;;;2.19;65.11;151929.72;5052582;28;20498;-78
2022/03/06 08:08:08;;;;;;;15.13;9.30;;;;;;;2.32;65.19;151963.13;5068406;28;20433;-78
2022/03/06 08:10:44;;;;;;;16.43;11.00;;;;;;;2.38;64.37;151977.28;5045864;28;20454;-78
2022/03/06 08:13:20;;;;;;;15.27;10.50;;;;;;;2.64;64.93;152042.84;5066128;28;20460;-78
2022/03/06 08:15:55;;;;;;;16.53;11.90;;;;;;;2.93;62.61;152117.47;5069303;28;20843;-78
2022/03/06 08:18:31;;;;;;;17.03;12.00;;;;;;;2.55;63.65;152019.69;5085575;28;20440;-78
2022/03/06 08:21:08;;;;;;;14.23;10.63;;;;;;;2.58;63.08;152028.72;5071009;28;20543;-78
2022/03/06 08:23:44;;;;;;;16.10;10.70;;;;;;;2.77;62.71;152077.59;5067121;28;20460;-78
2022/03/06 08:26:20;;;;;;;16.10;11.23;;;;;;;3.05;61.98;152148.31;5086195;28;20466;-78
2022/03/06 08:28:55;;;;;;;15.80;11.70;;;;;;;3.26;60.85;152201.06;5067173;28;20483;-78
2022/03/06 08:31:31;;;;;;;18.27;12.10;;;;;;;3.19;62.09;152184.38;5063856;28;20460;-78
2022/03/06 08:34:06;;;;;;;18.40;11.67;;;;;;;3.50;61.06;152264.16;5066146;28;20445;-78
2022/03/06 08:36:43;;;;;;;19.90;11.10;;;;;;;3.30;59.89;152212.69;5070367;28;20468;-78
2022/03/06 08:39:19;;;;;;;17.23;11.70;;;;;;;3.06;60.33;152150.91;5083614;28;20445;-77
2022/03/06 08:41:55;;;;;;;18.23;12.33;;;;;;;3.05;60.55;152149.63;5066709;28;20487;-78
2022/03/06 08:44:31;;;;;;;15.07;10.93;;;;;;;3.02;60.91;152140.59;5066341;28;20456;-78
2022/03/06 08:47:07;;;;;;;13.67;10.10;;;;;;;3.13;60.83;152167.63;5067378;28;20559;-78
2022/03/06 08:49:43;;;;;;;16.23;11.67;;;;;;;3.21;60.18;152188.22;5069090;28;20492;-78
2022/03/06 08:52:20;;;;;;;16.23;11.43;;;;;;;3.82;58.04;152343.97;5062668;28;20442;-79
2022/03/06 08:54:55;;;;;;;17.23;11.50;;;;;;;3.99;57.41;152387.75;5062702;28;20550;-79
2022/03/06 08:57:31;;;;;;;14.80;10.23;;;;;;;3.91;56.62;152367.16;5052463;28;20598;-78
2022/03/06 09:00:08;;;;;;;13.20;10.17;;;;;;;3.39;57.21;152235.81;5066367;28;20504;-78
2022/03/06 09:02:44;;;;;;;12.07;8.77;;;;;;;3.27;57.83;152204.97;5065394;28;20458;-78
2022/03/06 09:05:20;;;;;;;14.73;9.57;;;;;;;3.06;58.41;152150.91;5062468;28;21049;-78
2022/03/06 09:07:57;;;;;;;15.40;10.80;;;;;;;3.07;58.44;152153.50;5057435;28;20820;-78
2022/03/06 09:10:34;;;;;;;13.33;10.10;;;;;;;3.19;58.08;152184.38;5065592;28;20449;-78
2022/03/06 09:13:09;;;;;;;15.50;9.70;;;;;;;3.02;58.04;152141.91;5064633;28;20473;-78
2022/03/06 09:15:45;;;;;;;12.63;9.47;;;;;;;2.85;57.66;152096.88;5066679;28;20460;-78
2022/03/06 09:18:20;;;;;;;15.53;9.50;;;;;;;3.06;58.41;152150.91;5065721;28;20446;-78
2022/03/06 09:20:56;;;;;;;15.83;10.63;;;;;;;3.45;57.47;152251.28;5050649;28;20783;-78
2022/03/06 09:23:33;;;;;;;11.10;9.00;;;;;;;3.47;56.45;152256.44;5065412;28;20457;-78
2022/03/06 09:26:09;;;;;;;11.30;9.00;;;;;;;2.89;57.73;152108.44;5064987;28;20477;-78
2022/03/06 09:28:44;;;;;;;11.90;9.40;;;;;;;2.96;59.05;152125.19;5064158;28;20456;-78
2022/03/06 09:31:22;;;;;;;13.07;9.90;;;;;;;2.85;56.98;152096.88;5065315;28;20476;-78
2022/03/06 09:33:57;;;;;;;15.17;10.40;;;;;;;2.92;57.73;152116.16;5064403;28;20540;-78
2022/03/06 09:36:33;;;;;;;13.43;9.93;;;;;;;3.21;57.43;152189.50;5044168;28;20523;-77
2022/03/06 09:39:10;;;;;;;13.97;9.53;;;;;;;3.01;56.47;152139.34;5061901;28;20453;-78
2022/03/06 09:41:48;;;;;;;12.33;8.93;;;;;;;3.10;56.60;152159.94;5068455;28;20453;-78
2022/03/06 09:44:25;;;;;;;13.13;9.50;;;;;;;3.10;56.14;152159.94;5056039;28;20461;-78
2022/03/06 09:47:00;;;;;;;16.23;10.50;;;;;;;3.12;56.92;152165.06;5076854;28;20825;-78
2022/03/06 09:49:37;;;;;;;15.10;9.77;;;;;;;3.51;56.97;152265.44;5051277;28;20488;-78
2022/03/06 09:52:13;;;;;;;11.80;8.30;;;;;;;3.79;55.62;152337.53;5067916;28;20826;-78
2022/03/06 09:54:50;;;;;;;14.57;9.70;;;;;;;3.85;54.09;152351.69;5061718;28;20453;-78
2022/03/06 09:57:25;;;;;;;11.27;8.20;;;;;;;3.61;53.94;152292.47;5066533;28;20540;-78
2022/03/06 10:00:01;;;;;;;13.70;9.23;;;;;;;3.61;54.27;152292.47;5049552;28;20548;-78
2022/03/06 10:02:54;;;;;;;12.40;9.97;;;;;;;3.51;53.25;152266.75;5064501;28;20461;-78
2022/03/06 10:05:31;;;;;;;15.90;10.43;;;;;;;3.18;53.14;152180.53;5052021;28;20549;-78
2022/03/06 10:08:19;;;;;;;15.17;9.40;;;;;;;3.19;52.41;152184.38;5049532;28;20484;-78
2022/03/06 10:10:58;;;;;;;15.70;9.40;;;;;;;3.29;52.64;152210.09;5056391;28;20452;-78
2022/03/06 10:13:35;;;;;;;14.37;10.23;;;;;;;3.13;53.42;152168.91;5065915;28;20448;-78
2022/03/06 10:16:13;;;;;;;14.90;10.23;;;;;;;2.99;54.56;152132.91;5063655;28;20543;-79
2022/03/06 10:18:50;;;;;;;13.90;9.27;;;;;;;2.88;54.60;152105.91;5061017;28;21105;-78
2022/03/06 10:21:27;;;;;;;14.10;10.17;;;;;;;2.91;54.27;152113.56;5041739;28;20457;-78
2022/03/06 10:24:06;;;;;;;17.67;10.60;;;;;;;2.86;54.69;152100.72;5056060;28;20947;-78
2022/03/06 10:26:43;;;;;;;15.80;9.83;;;;;;;2.99;54.24;152132.91;5042561;28;20464;-78
2022/03/06 10:29:21;;;;;;;14.63;10.20;;;;;;;3.15;54.00;152174.03;5063477;28;20863;-78
2022/03/06 10:31:58;;;;;;;16.40;11.17;;;;;;;3.19;52.89;152184.38;5048946;28;20629;-78
2022/03/06 10:34:35;;;;;;;14.90;10.20;;;;;;;2.90;52.15;152109.75;5060123;28;20773;-78
2022/03/06 10:37:13;;;;;;;14.30;9.90;;;;;;;2.90;51.80;152109.75;5048015;28;20546;-78
2022/03/06 10:39:50;;;;;;;12.30;9.13;;;;;;;2.91;51.51;152112.34;5061707;28;20852;-78
2022/03/06 10:42:27;;;;;;;13.37;9.50;;;;;;;2.93;51.29;152117.47;5082466;28;20441;-78
2022/03/06 10:45:03;;;;;;;14.70;9.77;;;;;;;2.88;51.01;152105.91;5062766;28;20966;-78
2022/03/06 10:47:47;;;;;;;15.60;9.37;;;;;;;2.89;50.27;152107.16;5058372;28;20980;-78
2022/03/06 10:50:25;;;;;;;15.40;9.20;;;;;;;2.92;50.90;152114.88;5064369;28;20970;-78
2022/03/06 10:53:01;;;;;;;14.33;9.17;;;;;;;3.01;51.43;152138.06;5058327;28;21306;-79
2022/03/06 10:55:36;;;;;;;12.73;9.37;;;;;;;3.06;51.52;152150.91;5063061;28;20509;-78
2022/03/06 10:58:14;;;;;;;13.37;9.77;;;;;;;3.04;52.40;152147.03;5064362;28;20884;-78
2022/03/06 11:00:50;;;;;;;14.93;9.20;;;;;;;3.10;52.61;152159.94;5063939;28;20452;-78
2022/03/06 11:03:25;;;;;;;14.90;9.43;;;;;;;3.32;52.59;152217.81;5060224;28;20445;-78
2022/03/06 11:06:01;;;;;;;12.07;8.67;;;;;;;3.48;50.53;152257.72;5058977;28;20456;-79
2022/03/06 11:08:38;;;;;;;11.20;9.43;;;;;;;3.42;50.62;152243.56;5065130;28;20840;-78
2022/03/06 11:11:14;;;;;;;14.43;10.03;;;;;;;3.54;51.27;152274.47;5066284;28;20435;-78
2022/03/06 11:13:51;;;;;;;16.23;9.23;;;;;;;3.54;49.97;152274.47;5072826;28;20906;-78
2022/03/06 11:16:27;;;;;;;13.57;9.87;;;;;;;3.52;49.99;152268.03;5042692;28;20460;-78
2022/03/06 11:19:02;;;;;;;13.03;10.10;;;;;;;3.44;49.75;152247.44;5062596;28;20449;-78
2022/03/06 11:21:41;;;;;;;11.90;10.10;;;;;;;3.44;49.19;152247.44;5062656;28;20457;-78
2022/03/06 11:24:19;;;;;;;16.80;9.30;;;;;;;3.43;49.25;152244.84;5065072;28;20775;-78
2022/03/06 11:27:20;;;;;;;13.97;9.50;;;;;;;3.40;49.15;152237.13;5063877;28;20559;-78
2022/03/06 11:30:15;;;;;;;12.83;9.00;;;;;;;3.35;49.51;152225.56;5065647;28;20506;-77
2022/03/06 11:33:01;;;;;;;10.87;8.80;;;;;;;3.34;49.39;152221.66;5068018;28;20768;-77
2022/03/06 11:35:39;;;;;;;14.50;9.53;;;;;;;3.41;49.98;152241.00;5059022;28;20455;-78
2022/03/06 11:38:17;;;;;;;12.73;8.90;;;;;;;3.53;49.51;152270.59;5051346;28;20463;-77
2022/03/06 11:40:54;;;;;;;15.17;9.63;;;;;;;3.47;47.94;152255.13;5066106;28;20501;-78
2022/03/06 11:43:42;;;;;;;13.47;9.60;;;;;;;3.46;48.80;152252.59;5063113;28;20945;-79
2022/03/06 11:46:21;;;;;;;15.43;9.67;;;;;;;3.44;48.64;152248.69;5051545;28;20437;-79
2022/03/06 11:49:06;;;;;;;12.77;9.20;;;;;;;3.44;48.67;152247.44;5049272;28;20465;-79
2022/03/06 11:51:44;;;;;;;12.40;8.87;;;;;;;3.46;48.82;152253.88;5071239;28;20456;-79
2022/03/06 11:54:24;;;;;;;12.07;8.10;;;;;;;3.49;49.08;152261.59;5067896;28;20452;-79
2022/03/06 11:57:01;;;;;;;12.40;9.13;;;;;;;3.43;48.71;152244.84;5062547;28;20524;-79
2022/03/06 11:59:44;;;;;;;13.17;9.50;;;;;;;3.42;48.62;152243.56;5067888;28;20513;-78
2022/03/06 12:02:22;;;;;;;14.80;9.37;;;;;;;3.58;48.58;152283.47;5050397;28;20447;-79